sensor_id;sensor_type;location;lat;lon;timestamp;temperature;humidity
18794;DHT22;29610;49.022;12.114;2023-03-01T00:01:52;-0.70;93.50
18794;DHT22;29610;49.022;12.114;2023-03-01T00:04:21;-0.70;93.60
18794;DHT22;29610;49.022;12.114;2023-03-01T00:06:51;-0.70;93.70
18794;DHT22;29610;49.022;12.114;2023-03-01T00:09:19;-0.60;93.70
18794;DHT22;29610;49.022;12.114;2023-03-01T00:11:48;-0.60;93.60
18794;DHT22;29610;49.022;12.114;2023-03-01T00:14:17;-0.50;93.70
18794;DHT22;29610;49.022;12.114;2023-03-01T00:16:46;-0.50;93.60
18794;DHT22;29610;49.022;12.114;2023-03-01T00:19:17;-0.50;93.50
18794;DHT22;29610;49.022;12.114;2023-03-01T00:21:47;-0.50;93.40
18794;DHT22;29610;49.022;12.114;2023-03-01T00:24:17;-0.50;93.40
18794;DHT22;29610;49.022;12.114;2023-03-01T00:26:46;-0.50;93.40
18794;DHT22;29610;49.022;12.114;2023-03-01T00:29:15;-0.50;93.50
18794;DHT22;29610;49.022;12.114;2023-03-01T00:31:43;-0.50;93.50
18794;DHT22;29610;49.022;12.114;2023-03-01T00:34:12;-0.60;93.50
18794;DHT22;29610;49.022;12.114;2023-03-01T00:36:41;-0.60;93.80
18794;DHT22;29610;49.022;12.114;2023-03-01T00:39:12;-0.60;93.50
18794;DHT22;29610;49.022;12.114;2023-03-01T00:41:44;-0.60;93.40
18794;DHT22;29610;49.022;12.114;2023-03-01T00:44:12;-0.60;93.70
18794;DHT22;29610;49.022;12.114;2023-03-01T00:46:41;-0.60;93.40
18794;DHT22;29610;49.022;12.114;2023-03-01T00:49:09;-0.50;93.40
18794;DHT22;29610;49.022;12.114;2023-03-01T00:51:39;-0.50;93.40
18794;DHT22;29610;49.022;12.114;2023-03-01T00:54:09;-0.50;93.30
18794;DHT22;29610;49.022;12.114;2023-03-01T00:56:38;-0.50;93.20
18794;DHT22;29610;49.022;12.114;2023-03-01T00:59:10;-0.50;93.20
18794;DHT22;29610;49.022;12.114;2023-03-01T01:01:40;-0.50;93.10
18794;DHT22;29610;49.022;12.114;2023-03-01T01:04:11;-0.50;93.20
18794;DHT22;29610;49.022;12.114;2023-03-01T01:06:42;-0.60;93.20
18794;DHT22;29610;49.022;12.114;2023-03-01T01:09:13;-0.50;93.20
18794;DHT22;29610;49.022;12.114;2023-03-01T01:11:47;-0.50;93.10
18794;DHT22;29610;49.022;12.114;2023-03-01T01:14:19;-0.50;93.10
18794;DHT22;29610;49.022;12.114;2023-03-01T01:16:48;-0.50;93.00
18794;DHT22;29610;49.022;12.114;2023-03-01T01:19:17;-0.60;93.10
18794;DHT22;29610;49.022;12.114;2023-03-01T01:21:45;-0.60;93.10
18794;DHT22;29610;49.022;12.114;2023-03-01T01:24:15;-0.70;93.20
18794;DHT22;29610;49.022;12.114;2023-03-01T01:26:46;-0.70;93.30
18794;DHT22;29610;49.022;12.114;2023-03-01T01:29:18;-0.70;93.30
18794;DHT22;29610;49.022;12.114;2023-03-01T01:31:47;-0.70;93.30
18794;DHT22;29610;49.022;12.114;2023-03-01T01:34:17;-0.80;93.30
18794;DHT22;29610;49.022;12.114;2023-03-01T01:36:48;-0.70;93.20
18794;DHT22;29610;49.022;12.114;2023-03-01T01:39:20;-0.70;93.10
18794;DHT22;29610;49.022;12.114;2023-03-01T01:41:49;-0.70;93.30
18794;DHT22;29610;49.022;12.114;2023-03-01T01:44:21;-0.70;92.90
18794;DHT22;29610;49.022;12.114;2023-03-01T01:46:54;-0.80;93.00
18794;DHT22;29610;49.022;12.114;2023-03-01T01:49:30;-0.90;93.00
18794;DHT22;29610;49.022;12.114;2023-03-01T01:52:08;-0.90;93.00
18794;DHT22;29610;49.022;12.114;2023-03-01T01:54:42;-0.90;93.10
18794;DHT22;29610;49.022;12.114;2023-03-01T01:57:19;-0.90;93.10
18794;DHT22;29610;49.022;12.114;2023-03-01T01:59:54;-1.00;93.40
18794;DHT22;29610;49.022;12.114;2023-03-01T02:02:25;-0.90;93.10
18794;DHT22;29610;49.022;12.114;2023-03-01T02:05:01;-0.90;93.30
18794;DHT22;29610;49.022;12.114;2023-03-01T02:07:38;-0.90;93.00
18794;DHT22;29610;49.022;12.114;2023-03-01T02:10:09;-1.00;93.10
18794;DHT22;29610;49.022;12.114;2023-03-01T02:12:38;-1.00;93.10
18794;DHT22;29610;49.022;12.114;2023-03-01T02:15:10;-1.00;93.10
18794;DHT22;29610;49.022;12.114;2023-03-01T02:17:39;-1.10;92.90
18794;DHT22;29610;49.022;12.114;2023-03-01T02:20:15;-1.10;93.00
18794;DHT22;29610;49.022;12.114;2023-03-01T02:22:52;-1.10;93.10
18794;DHT22;29610;49.022;12.114;2023-03-01T02:25:27;-1.20;93.10
18794;DHT22;29610;49.022;12.114;2023-03-01T02:28:10;-1.20;93.30
18794;DHT22;29610;49.022;12.114;2023-03-01T02:30:51;-1.30;93.40
18794;DHT22;29610;49.022;12.114;2023-03-01T02:33:39;-1.30;93.50
18794;DHT22;29610;49.022;12.114;2023-03-01T02:36:12;-1.40;93.50
18794;DHT22;29610;49.022;12.114;2023-03-01T02:38:47;-1.40;93.60
18794;DHT22;29610;49.022;12.114;2023-03-01T02:41:19;-1.40;93.50
18794;DHT22;29610;49.022;12.114;2023-03-01T02:43:50;-1.40;93.60
18794;DHT22;29610;49.022;12.114;2023-03-01T02:46:21;-1.40;93.50
18794;DHT22;29610;49.022;12.114;2023-03-01T02:48:53;-1.40;93.50
18794;DHT22;29610;49.022;12.114;2023-03-01T02:51:42;-1.50;93.40
18794;DHT22;29610;49.022;12.114;2023-03-01T02:54:21;-1.50;93.40
18794;DHT22;29610;49.022;12.114;2023-03-01T02:56:56;-1.50;93.60
18794;DHT22;29610;49.022;12.114;2023-03-01T02:59:31;-1.60;93.50
18794;DHT22;29610;49.022;12.114;2023-03-01T03:02:18;-1.60;93.50
18794;DHT22;29610;49.022;12.114;2023-03-01T03:05:14;-1.60;93.50
18794;DHT22;29610;49.022;12.114;2023-03-01T03:07:46;-1.70;93.60
18794;DHT22;29610;49.022;12.114;2023-03-01T03:10:20;-1.80;93.60
18794;DHT22;29610;49.022;12.114;2023-03-01T03:12:52;-1.80;93.60
18794;DHT22;29610;49.022;12.114;2023-03-01T03:15:25;-1.90;93.70
18794;DHT22;29610;49.022;12.114;2023-03-01T03:17:57;-2.00;93.80
18794;DHT22;29610;49.022;12.114;2023-03-01T03:20:27;-2.10;93.90
18794;DHT22;29610;49.022;12.114;2023-03-01T03:22:57;-2.20;94.20
18794;DHT22;29610;49.022;12.114;2023-03-01T03:25:27;-2.40;94.10
18794;DHT22;29610;49.022;12.114;2023-03-01T03:27:57;-2.50;94.20
18794;DHT22;29610;49.022;12.114;2023-03-01T03:30:29;-2.60;94.50
18794;DHT22;29610;49.022;12.114;2023-03-01T03:32:59;-2.50;94.70
18794;DHT22;29610;49.022;12.114;2023-03-01T03:35:29;-2.40;94.80
18794;DHT22;29610;49.022;12.114;2023-03-01T03:38:01;-2.40;94.70
18794;DHT22;29610;49.022;12.114;2023-03-01T03:40:36;-2.30;94.50
18794;DHT22;29610;49.022;12.114;2023-03-01T03:43:08;-2.40;94.40
18794;DHT22;29610;49.022;12.114;2023-03-01T03:45:39;-2.40;94.50
18794;DHT22;29610;49.022;12.114;2023-03-01T03:48:09;-2.50;94.40
18794;DHT22;29610;49.022;12.114;2023-03-01T03:50:38;-2.50;94.70
18794;DHT22;29610;49.022;12.114;2023-03-01T03:53:10;-2.40;94.90
18794;DHT22;29610;49.022;12.114;2023-03-01T03:55:40;-2.40;94.70
18794;DHT22;29610;49.022;12.114;2023-03-01T03:58:09;-2.40;94.60
18794;DHT22;29610;49.022;12.114;2023-03-01T04:00:41;-2.40;94.60
18794;DHT22;29610;49.022;12.114;2023-03-01T04:03:13;-2.40;94.50
18794;DHT22;29610;49.022;12.114;2023-03-01T04:05:46;-2.20;94.50
18794;DHT22;29610;49.022;12.114;2023-03-01T04:08:17;-2.10;94.20
18794;DHT22;29610;49.022;12.114;2023-03-01T04:10:49;-2.00;94.10
18794;DHT22;29610;49.022;12.114;2023-03-01T04:13:20;-2.00;94.00
18794;DHT22;29610;49.022;12.114;2023-03-01T04:15:51;-2.00;94.00
18794;DHT22;29610;49.022;12.114;2023-03-01T04:18:22;-2.00;93.90
18794;DHT22;29610;49.022;12.114;2023-03-01T04:20:53;-2.00;93.70
18794;DHT22;29610;49.022;12.114;2023-03-01T04:23:22;-1.90;93.60
18794;DHT22;29610;49.022;12.114;2023-03-01T04:25:53;-1.90;93.60
18794;DHT22;29610;49.022;12.114;2023-03-01T04:28:25;-1.90;93.60
18794;DHT22;29610;49.022;12.114;2023-03-01T04:30:58;-0.60;94.10
18794;DHT22;29610;49.022;12.114;2023-03-01T04:33:33;-1.80;93.90
18794;DHT22;29610;49.022;12.114;2023-03-01T04:36:02;-1.90;93.50
18794;DHT22;29610;49.022;12.114;2023-03-01T04:38:32;-1.90;93.50
18794;DHT22;29610;49.022;12.114;2023-03-01T04:41:00;-1.90;93.40
18794;DHT22;29610;49.022;12.114;2023-03-01T04:43:30;-1.90;93.50
18794;DHT22;29610;49.022;12.114;2023-03-01T04:46:02;-1.90;93.50
18794;DHT22;29610;49.022;12.114;2023-03-01T04:48:33;-1.90;93.50
18794;DHT22;29610;49.022;12.114;2023-03-01T04:51:02;-1.90;93.50
18794;DHT22;29610;49.022;12.114;2023-03-01T04:53:32;-2.00;93.50
18794;DHT22;29610;49.022;12.114;2023-03-01T04:56:03;-2.00;93.50
18794;DHT22;29610;49.022;12.114;2023-03-01T04:58:32;-2.00;93.60
18794;DHT22;29610;49.022;12.114;2023-03-01T05:01:08;-2.00;93.60
18794;DHT22;29610;49.022;12.114;2023-03-01T05:03:42;-2.00;93.60
18794;DHT22;29610;49.022;12.114;2023-03-01T05:06:12;-2.00;93.60
18794;DHT22;29610;49.022;12.114;2023-03-01T05:08:42;-2.00;93.50
18794;DHT22;29610;49.022;12.114;2023-03-01T05:11:12;-2.00;93.50
18794;DHT22;29610;49.022;12.114;2023-03-01T05:13:41;-2.00;93.60
18794;DHT22;29610;49.022;12.114;2023-03-01T05:16:11;-2.00;93.60
18794;DHT22;29610;49.022;12.114;2023-03-01T05:18:41;-2.10;93.60
18794;DHT22;29610;49.022;12.114;2023-03-01T05:21:11;-2.00;93.70
18794;DHT22;29610;49.022;12.114;2023-03-01T05:23:43;-2.10;93.70
18794;DHT22;29610;49.022;12.114;2023-03-01T05:26:14;-2.10;93.80
18794;DHT22;29610;49.022;12.114;2023-03-01T05:28:59;-2.20;93.80
18794;DHT22;29610;49.022;12.114;2023-03-01T05:31:29;-2.20;93.90
18794;DHT22;29610;49.022;12.114;2023-03-01T05:33:58;-2.20;93.90
18794;DHT22;29610;49.022;12.114;2023-03-01T05:36:27;-2.20;93.90
18794;DHT22;29610;49.022;12.114;2023-03-01T05:38:56;-2.30;93.90
18794;DHT22;29610;49.022;12.114;2023-03-01T05:41:25;-2.30;94.00
18794;DHT22;29610;49.022;12.114;2023-03-01T05:43:54;-2.20;93.90
18794;DHT22;29610;49.022;12.114;2023-03-01T05:46:22;-2.20;93.90
18794;DHT22;29610;49.022;12.114;2023-03-01T05:48:52;-2.30;93.90
18794;DHT22;29610;49.022;12.114;2023-03-01T05:51:22;-2.30;93.90
18794;DHT22;29610;49.022;12.114;2023-03-01T05:53:50;-2.20;93.90
18794;DHT22;29610;49.022;12.114;2023-03-01T05:56:19;-2.20;93.90
18794;DHT22;29610;49.022;12.114;2023-03-01T05:58:49;-2.20;93.80
18794;DHT22;29610;49.022;12.114;2023-03-01T06:01:18;-2.20;93.80
18794;DHT22;29610;49.022;12.114;2023-03-01T06:03:46;-2.10;93.70
18794;DHT22;29610;49.022;12.114;2023-03-01T06:06:16;-2.10;93.80
18794;DHT22;29610;49.022;12.114;2023-03-01T06:08:45;-2.20;93.70
18794;DHT22;29610;49.022;12.114;2023-03-01T06:11:14;-2.20;93.70
18794;DHT22;29610;49.022;12.114;2023-03-01T06:13:43;-2.10;93.80
18794;DHT22;29610;49.022;12.114;2023-03-01T06:16:13;-2.10;93.70
18794;DHT22;29610;49.022;12.114;2023-03-01T06:18:42;-2.00;93.60
18794;DHT22;29610;49.022;12.114;2023-03-01T06:21:11;-2.00;93.60
18794;DHT22;29610;49.022;12.114;2023-03-01T06:23:41;-2.00;93.50
18794;DHT22;29610;49.022;12.114;2023-03-01T06:26:10;-2.00;93.50
18794;DHT22;29610;49.022;12.114;2023-03-01T06:28:38;-1.90;93.40
18794;DHT22;29610;49.022;12.114;2023-03-01T06:31:07;-1.90;93.40
18794;DHT22;29610;49.022;12.114;2023-03-01T06:33:36;-1.90;93.40
18794;DHT22;29610;49.022;12.114;2023-03-01T06:36:06;-1.90;93.30
18794;DHT22;29610;49.022;12.114;2023-03-01T06:38:36;-1.80;93.30
18794;DHT22;29610;49.022;12.114;2023-03-01T06:41:06;-1.80;93.20
18794;DHT22;29610;49.022;12.114;2023-03-01T06:43:35;-1.70;93.20
18794;DHT22;29610;49.022;12.114;2023-03-01T06:46:04;-1.70;93.20
18794;DHT22;29610;49.022;12.114;2023-03-01T06:48:34;-1.70;93.20
18794;DHT22;29610;49.022;12.114;2023-03-01T06:51:03;-1.70;93.20
18794;DHT22;29610;49.022;12.114;2023-03-01T06:53:32;-1.60;93.20
18794;DHT22;29610;49.022;12.114;2023-03-01T06:56:00;-1.60;93.20
18794;DHT22;29610;49.022;12.114;2023-03-01T06:58:30;-1.50;93.10
18794;DHT22;29610;49.022;12.114;2023-03-01T07:00:59;-1.50;92.90
18794;DHT22;29610;49.022;12.114;2023-03-01T07:03:27;-1.40;93.00
18794;DHT22;29610;49.022;12.114;2023-03-01T07:05:56;-1.30;92.90
18794;DHT22;29610;49.022;12.114;2023-03-01T07:08:24;-1.30;92.80
18794;DHT22;29610;49.022;12.114;2023-03-01T07:10:55;-1.30;92.60
18794;DHT22;29610;49.022;12.114;2023-03-01T07:13:24;-1.20;92.60
18794;DHT22;29610;49.022;12.114;2023-03-01T07:15:54;-1.10;92.40
18794;DHT22;29610;49.022;12.114;2023-03-01T07:18:22;-1.10;92.40
18794;DHT22;29610;49.022;12.114;2023-03-01T07:20:52;-1.00;92.40
18794;DHT22;29610;49.022;12.114;2023-03-01T07:23:20;-0.80;92.20
18794;DHT22;29610;49.022;12.114;2023-03-01T07:25:53;-0.80;92.10
18794;DHT22;29610;49.022;12.114;2023-03-01T07:28:22;-0.70;91.80
18794;DHT22;29610;49.022;12.114;2023-03-01T07:30:51;-0.60;91.60
18794;DHT22;29610;49.022;12.114;2023-03-01T07:33:21;-0.60;91.30
18794;DHT22;29610;49.022;12.114;2023-03-01T07:35:56;-0.50;91.50
18794;DHT22;29610;49.022;12.114;2023-03-01T07:38:26;-0.40;91.20
18794;DHT22;29610;49.022;12.114;2023-03-01T07:40:58;-0.40;91.20
18794;DHT22;29610;49.022;12.114;2023-03-01T07:43:28;-0.30;91.10
18794;DHT22;29610;49.022;12.114;2023-03-01T07:45:58;-0.20;91.00
18794;DHT22;29610;49.022;12.114;2023-03-01T07:48:30;-0.10;90.70
18794;DHT22;29610;49.022;12.114;2023-03-01T07:51:00;0.00;90.70
18794;DHT22;29610;49.022;12.114;2023-03-01T07:53:29;0.10;90.70
18794;DHT22;29610;49.022;12.114;2023-03-01T07:56:02;0.20;90.30
18794;DHT22;29610;49.022;12.114;2023-03-01T07:58:33;0.30;90.00
18794;DHT22;29610;49.022;12.114;2023-03-01T08:01:03;0.40;90.00
18794;DHT22;29610;49.022;12.114;2023-03-01T08:03:33;0.40;90.10
18794;DHT22;29610;49.022;12.114;2023-03-01T08:06:03;0.40;89.90
18794;DHT22;29610;49.022;12.114;2023-03-01T08:08:34;0.60;90.00
18794;DHT22;29610;49.022;12.114;2023-03-01T08:11:05;0.80;89.80
18794;DHT22;29610;49.022;12.114;2023-03-01T08:13:35;0.90;88.60
18794;DHT22;29610;49.022;12.114;2023-03-01T08:16:05;0.90;88.90
18794;DHT22;29610;49.022;12.114;2023-03-01T08:18:37;1.00;88.70
18794;DHT22;29610;49.022;12.114;2023-03-01T08:21:07;1.00;88.30
18794;DHT22;29610;49.022;12.114;2023-03-01T08:23:37;1.10;88.70
18794;DHT22;29610;49.022;12.114;2023-03-01T08:26:08;1.20;88.30
18794;DHT22;29610;49.022;12.114;2023-03-01T08:28:39;1.20;87.20
18794;DHT22;29610;49.022;12.114;2023-03-01T08:31:16;1.20;87.10
18794;DHT22;29610;49.022;12.114;2023-03-01T08:33:52;1.20;87.20
18794;DHT22;29610;49.022;12.114;2023-03-01T08:36:24;1.30;86.90
18794;DHT22;29610;49.022;12.114;2023-03-01T08:38:53;1.50;87.00
18794;DHT22;29610;49.022;12.114;2023-03-01T08:41:22;1.50;86.50
18794;DHT22;29610;49.022;12.114;2023-03-01T08:43:51;1.50;86.60
18794;DHT22;29610;49.022;12.114;2023-03-01T08:46:26;1.50;86.20
18794;DHT22;29610;49.022;12.114;2023-03-01T08:48:56;1.70;85.60
18794;DHT22;29610;49.022;12.114;2023-03-01T08:51:26;1.70;85.00
18794;DHT22;29610;49.022;12.114;2023-03-01T08:53:56;1.80;85.80
18794;DHT22;29610;49.022;12.114;2023-03-01T08:56:24;1.80;85.00
18794;DHT22;29610;49.022;12.114;2023-03-01T08:58:53;1.90;84.60
18794;DHT22;29610;49.022;12.114;2023-03-01T09:01:23;1.90;84.70
18794;DHT22;29610;49.022;12.114;2023-03-01T09:03:52;2.10;84.50
18794;DHT22;29610;49.022;12.114;2023-03-01T09:06:22;2.10;83.10
18794;DHT22;29610;49.022;12.114;2023-03-01T09:08:51;2.20;83.50
18794;DHT22;29610;49.022;12.114;2023-03-01T09:11:21;2.20;82.90
18794;DHT22;29610;49.022;12.114;2023-03-01T09:13:50;2.20;82.90
18794;DHT22;29610;49.022;12.114;2023-03-01T09:16:20;2.30;82.90
18794;DHT22;29610;49.022;12.114;2023-03-01T09:18:52;2.40;82.40
18794;DHT22;29610;49.022;12.114;2023-03-01T09:21:23;2.40;82.10
18794;DHT22;29610;49.022;12.114;2023-03-01T09:24:07;2.50;82.00
18794;DHT22;29610;49.022;12.114;2023-03-01T09:26:41;2.70;82.00
18794;DHT22;29610;49.022;12.114;2023-03-01T09:29:15;2.80;81.50
18794;DHT22;29610;49.022;12.114;2023-03-01T09:31:44;2.80;82.30
18794;DHT22;29610;49.022;12.114;2023-03-01T09:34:13;2.90;81.90
18794;DHT22;29610;49.022;12.114;2023-03-01T09:36:44;2.90;81.40
18794;DHT22;29610;49.022;12.114;2023-03-01T09:39:13;3.00;81.50
18794;DHT22;29610;49.022;12.114;2023-03-01T09:41:48;3.00;80.70
18794;DHT22;29610;49.022;12.114;2023-03-01T09:44:31;3.10;80.60
18794;DHT22;29610;49.022;12.114;2023-03-01T09:47:09;3.20;80.50
18794;DHT22;29610;49.022;12.114;2023-03-01T09:49:46;3.20;80.30
18794;DHT22;29610;49.022;12.114;2023-03-01T09:52:32;3.20;80.20
18794;DHT22;29610;49.022;12.114;2023-03-01T09:55:10;3.40;80.60
18794;DHT22;29610;49.022;12.114;2023-03-01T09:57:46;3.50;80.10
18794;DHT22;29610;49.022;12.114;2023-03-01T10:00:36;3.60;79.40
18794;DHT22;29610;49.022;12.114;2023-03-01T10:03:14;3.60;79.10
18794;DHT22;29610;49.022;12.114;2023-03-01T10:05:56;3.70;78.80
18794;DHT22;29610;49.022;12.114;2023-03-01T10:08:42;3.70;78.80
18794;DHT22;29610;49.022;12.114;2023-03-01T10:11:20;3.80;78.70
18794;DHT22;29610;49.022;12.114;2023-03-01T10:13:57;3.80;79.20
18794;DHT22;29610;49.022;12.114;2023-03-01T10:16:37;3.90;77.70
18794;DHT22;29610;49.022;12.114;2023-03-01T10:19:14;4.00;77.40
18794;DHT22;29610;49.022;12.114;2023-03-01T10:21:49;4.10;77.00
18794;DHT22;29610;49.022;12.114;2023-03-01T10:24:21;4.20;77.40
18794;DHT22;29610;49.022;12.114;2023-03-01T10:26:54;4.20;75.90
18794;DHT22;29610;49.022;12.114;2023-03-01T10:29:27;4.10;76.50
18794;DHT22;29610;49.022;12.114;2023-03-01T10:32:04;4.30;76.60
18794;DHT22;29610;49.022;12.114;2023-03-01T10:34:35;4.50;76.60
18794;DHT22;29610;49.022;12.114;2023-03-01T10:37:12;4.60;76.10
18794;DHT22;29610;49.022;12.114;2023-03-01T10:39:58;4.60;75.20
18794;DHT22;29610;49.022;12.114;2023-03-01T10:42:34;4.40;76.10
18794;DHT22;29610;49.022;12.114;2023-03-01T10:45:19;4.60;75.80
18794;DHT22;29610;49.022;12.114;2023-03-01T10:48:06;4.80;76.10
18794;DHT22;29610;49.022;12.114;2023-03-01T10:50:42;4.90;75.60
18794;DHT22;29610;49.022;12.114;2023-03-01T10:53:24;5.00;75.00
18794;DHT22;29610;49.022;12.114;2023-03-01T10:56:00;5.20;75.10
18794;DHT22;29610;49.022;12.114;2023-03-01T10:58:32;5.30;73.20
18794;DHT22;29610;49.022;12.114;2023-03-01T11:01:03;5.40;72.70
18794;DHT22;29610;49.022;12.114;2023-03-01T11:03:34;5.50;73.50
18794;DHT22;29610;49.022;12.114;2023-03-01T11:06:12;5.60;73.90
18794;DHT22;29610;49.022;12.114;2023-03-01T11:08:50;5.60;72.20
18794;DHT22;29610;49.022;12.114;2023-03-01T11:11:30;5.80;71.70
18794;DHT22;29610;49.022;12.114;2023-03-01T11:14:06;5.90;71.70
18794;DHT22;29610;49.022;12.114;2023-03-01T11:16:59;6.00;71.40
18794;DHT22;29610;49.022;12.114;2023-03-01T11:19:31;6.20;71.50
18794;DHT22;29610;49.022;12.114;2023-03-01T11:22:03;6.40;70.60
18794;DHT22;29610;49.022;12.114;2023-03-01T11:24:40;6.10;69.70
18794;DHT22;29610;49.022;12.114;2023-03-01T11:27:18;6.10;70.40
18794;DHT22;29610;49.022;12.114;2023-03-01T11:29:53;6.20;70.80
18794;DHT22;29610;49.022;12.114;2023-03-01T11:32:28;6.30;70.20
18794;DHT22;29610;49.022;12.114;2023-03-01T11:35:08;6.50;70.80
18794;DHT22;29610;49.022;12.114;2023-03-01T11:37:46;6.70;71.70
18794;DHT22;29610;49.022;12.114;2023-03-01T11:40:25;6.90;71.10
18794;DHT22;29610;49.022;12.114;2023-03-01T11:43:14;6.90;70.10
18794;DHT22;29610;49.022;12.114;2023-03-01T11:49:33;7.10;70.00
18794;DHT22;29610;49.022;12.114;2023-03-01T11:52:21;7.00;70.30
18794;DHT22;29610;49.022;12.114;2023-03-01T11:55:20;7.10;70.60
18794;DHT22;29610;49.022;12.114;2023-03-01T11:58:19;7.40;69.50
18794;DHT22;29610;49.022;12.114;2023-03-01T12:01:14;7.20;69.90
18794;DHT22;29610;49.022;12.114;2023-03-01T12:04:14;7.20;69.70
18794;DHT22;29610;49.022;12.114;2023-03-01T12:07:21;7.30;70.20
18794;DHT22;29610;49.022;12.114;2023-03-01T12:10:17;7.20;69.20
18794;DHT22;29610;49.022;12.114;2023-03-01T12:13:09;7.40;70.10
18794;DHT22;29610;49.022;12.114;2023-03-01T12:16:15;7.40;71.00
18794;DHT22;29610;49.022;12.114;2023-03-01T12:19:27;7.70;71.40
18794;DHT22;29610;49.022;12.114;2023-03-01T12:22:11;8.20;69.90
18794;DHT22;29610;49.022;12.114;2023-03-01T12:25:24;8.00;69.20
18794;DHT22;29610;49.022;12.114;2023-03-01T12:28:23;7.50;70.40
18794;DHT22;29610;49.022;12.114;2023-03-01T12:31:27;7.50;72.90
18794;DHT22;29610;49.022;12.114;2023-03-01T12:34:15;7.40;72.00
18794;DHT22;29610;49.022;12.114;2023-03-01T12:37:10;7.60;71.20
18794;DHT22;29610;49.022;12.114;2023-03-01T12:40:01;7.70;70.90
18794;DHT22;29610;49.022;12.114;2023-03-01T12:42:56;8.10;70.90
18794;DHT22;29610;49.022;12.114;2023-03-01T12:45:49;8.20;71.20
18794;DHT22;29610;49.022;12.114;2023-03-01T12:48:40;8.30;70.70
18794;DHT22;29610;49.022;12.114;2023-03-01T12:51:18;8.20;70.00
18794;DHT22;29610;49.022;12.114;2023-03-01T12:53:53;8.40;70.20
18794;DHT22;29610;49.022;12.114;2023-03-01T12:56:26;8.40;71.20
18794;DHT22;29610;49.022;12.114;2023-03-01T12:59:02;8.30;69.70
18794;DHT22;29610;49.022;12.114;2023-03-01T13:01:48;8.00;69.90
18794;DHT22;29610;49.022;12.114;2023-03-01T13:04:38;7.70;71.30
18794;DHT22;29610;49.022;12.114;2023-03-01T13:07:25;8.00;72.10
18794;DHT22;29610;49.022;12.114;2023-03-01T13:10:06;8.20;71.30
18794;DHT22;29610;49.022;12.114;2023-03-01T13:13:00;8.20;70.90
18794;DHT22;29610;49.022;12.114;2023-03-01T13:15:37;8.20;71.40
18794;DHT22;29610;49.022;12.114;2023-03-01T13:18:32;8.10;71.20
18794;DHT22;29610;49.022;12.114;2023-03-01T13:21:05;8.10;71.30
18794;DHT22;29610;49.022;12.114;2023-03-01T13:23:36;8.00;72.20
18794;DHT22;29610;49.022;12.114;2023-03-01T13:26:09;8.20;72.60
18794;DHT22;29610;49.022;12.114;2023-03-01T13:29:00;8.50;71.70
18794;DHT22;29610;49.022;12.114;2023-03-01T13:31:59;8.50;70.50
18794;DHT22;29610;49.022;12.114;2023-03-01T13:35:01;8.20;70.70
18794;DHT22;29610;49.022;12.114;2023-03-01T13:37:36;7.80;72.20
18794;DHT22;29610;49.022;12.114;2023-03-01T13:43:30;8.30;72.20
18794;DHT22;29610;49.022;12.114;2023-03-01T13:46:02;8.60;72.60
18794;DHT22;29610;49.022;12.114;2023-03-01T13:48:38;8.60;71.50
18794;DHT22;29610;49.022;12.114;2023-03-01T13:51:12;8.40;71.10
18794;DHT22;29610;49.022;12.114;2023-03-01T13:53:42;8.20;71.20
18794;DHT22;29610;49.022;12.114;2023-03-01T13:56:15;8.00;71.70
18794;DHT22;29610;49.022;12.114;2023-03-01T13:58:49;7.90;72.00
18794;DHT22;29610;49.022;12.114;2023-03-01T14:01:24;7.80;73.10
18794;DHT22;29610;49.022;12.114;2023-03-01T14:03:56;7.80;73.30
18794;DHT22;29610;49.022;12.114;2023-03-01T14:06:27;7.90;73.10
18794;DHT22;29610;49.022;12.114;2023-03-01T14:09:04;7.90;72.60
18794;DHT22;29610;49.022;12.114;2023-03-01T14:12:06;7.80;73.00
18794;DHT22;29610;49.022;12.114;2023-03-01T14:14:54;7.70;73.70
18794;DHT22;29610;49.022;12.114;2023-03-01T14:17:38;7.80;73.40
18794;DHT22;29610;49.022;12.114;2023-03-01T14:20:19;7.80;73.70
18794;DHT22;29610;49.022;12.114;2023-03-01T14:22:53;7.80;74.20
18794;DHT22;29610;49.022;12.114;2023-03-01T14:25:26;8.00;74.60
18794;DHT22;29610;49.022;12.114;2023-03-01T14:28:00;8.10;73.80
18794;DHT22;29610;49.022;12.114;2023-03-01T14:30:36;7.80;73.80
18794;DHT22;29610;49.022;12.114;2023-03-01T14:33:18;7.40;74.90
18794;DHT22;29610;49.022;12.114;2023-03-01T14:35:55;7.50;75.40
18794;DHT22;29610;49.022;12.114;2023-03-01T14:38:33;7.50;75.00
18794;DHT22;29610;49.022;12.114;2023-03-01T14:41:06;8.20;76.50
18794;DHT22;29610;49.022;12.114;2023-03-01T14:43:37;7.50;75.50
18794;DHT22;29610;49.022;12.114;2023-03-01T14:46:18;7.50;75.30
18794;DHT22;29610;49.022;12.114;2023-03-01T14:48:50;7.50;75.60
18794;DHT22;29610;49.022;12.114;2023-03-01T14:51:20;7.50;76.90
18794;DHT22;29610;49.022;12.114;2023-03-01T14:53:51;7.50;76.30
18794;DHT22;29610;49.022;12.114;2023-03-01T14:56:20;7.40;76.20
18794;DHT22;29610;49.022;12.114;2023-03-01T14:58:51;7.30;76.10
18794;DHT22;29610;49.022;12.114;2023-03-01T15:01:21;7.20;77.20
18794;DHT22;29610;49.022;12.114;2023-03-01T15:03:51;7.30;77.20
18794;DHT22;29610;49.022;12.114;2023-03-01T15:06:22;7.20;76.90
18794;DHT22;29610;49.022;12.114;2023-03-01T15:08:54;7.10;77.10
18794;DHT22;29610;49.022;12.114;2023-03-01T15:11:28;7.10;77.70
18794;DHT22;29610;49.022;12.114;2023-03-01T15:13:59;6.90;77.50
18794;DHT22;29610;49.022;12.114;2023-03-01T15:16:29;6.80;77.40
18794;DHT22;29610;49.022;12.114;2023-03-01T15:19:05;6.80;78.10
18794;DHT22;29610;49.022;12.114;2023-03-01T15:21:36;6.80;78.50
18794;DHT22;29610;49.022;12.114;2023-03-01T15:24:17;6.70;78.60
18794;DHT22;29610;49.022;12.114;2023-03-01T15:26:51;6.70;79.00
18794;DHT22;29610;49.022;12.114;2023-03-01T15:29:26;6.70;78.90
18794;DHT22;29610;49.022;12.114;2023-03-01T15:31:59;6.60;79.40
18794;DHT22;29610;49.022;12.114;2023-03-01T15:34:32;6.70;79.30
18794;DHT22;29610;49.022;12.114;2023-03-01T15:37:06;6.50;79.60
18794;DHT22;29610;49.022;12.114;2023-03-01T15:39:57;6.50;80.50
18794;DHT22;29610;49.022;12.114;2023-03-01T15:42:38;6.40;79.40
18794;DHT22;29610;49.022;12.114;2023-03-01T15:45:20;6.30;79.70
18794;DHT22;29610;49.022;12.114;2023-03-01T15:47:53;6.30;80.10
18794;DHT22;29610;49.022;12.114;2023-03-01T15:50:26;6.20;80.10
18794;DHT22;29610;49.022;12.114;2023-03-01T15:52:58;6.20;80.20
18794;DHT22;29610;49.022;12.114;2023-03-01T15:55:31;6.10;80.50
18794;DHT22;29610;49.022;12.114;2023-03-01T15:58:02;6.10;80.90
18794;DHT22;29610;49.022;12.114;2023-03-01T16:00:33;6.10;80.80
18794;DHT22;29610;49.022;12.114;2023-03-01T16:03:02;6.00;80.40
18794;DHT22;29610;49.022;12.114;2023-03-01T16:05:33;6.00;81.10
18794;DHT22;29610;49.022;12.114;2023-03-01T16:08:04;6.00;81.20
18794;DHT22;29610;49.022;12.114;2023-03-01T16:10:41;5.90;81.20
18794;DHT22;29610;49.022;12.114;2023-03-01T16:13:11;5.80;81.30
18794;DHT22;29610;49.022;12.114;2023-03-01T16:15:40;5.80;81.60